sensor_id;sensor_type;location;lat;lon;timestamp;P1;durP1;ratioP1;P2;durP2;ratioP2
35795;SDS011;21916;52.428;13.302;2023-07-29T00:00:44;3.30;;;2.17;;
35795;SDS011;21916;52.428;13.302;2023-07-29T00:03:10;3.72;;;1.92;;
35795;SDS011;21916;52.428;13.302;2023-07-29T00:05:36;3.55;;;1.73;;
35795;SDS011;21916;52.428;13.302;2023-07-29T00:08:02;2.80;;;1.65;;
35795;SDS011;21916;52.428;13.302;2023-07-29T00:10:31;2.90;;;2.00;;
35795;SDS011;21916;52.428;13.302;2023-07-29T00:12:58;2.22;;;1.80;;
35795;SDS011;21916;52.428;13.302;2023-07-29T00:15:25;2.55;;;1.70;;
35795;SDS011;21916;52.428;13.302;2023-07-29T00:17:51;2.80;;;1.90;;
35795;SDS011;21916;52.428;13.302;2023-07-29T00:20:17;2.38;;;1.85;;
35795;SDS011;21916;52.428;13.302;2023-07-29T00:22:43;2.03;;;1.55;;
35795;SDS011;21916;52.428;13.302;2023-07-29T00:25:09;2.25;;;1.52;;
35795;SDS011;21916;52.428;13.302;2023-07-29T00:27:35;2.42;;;1.38;;
35795;SDS011;21916;52.428;13.302;2023-07-29T00:30:02;2.33;;;1.65;;
35795;SDS011;21916;52.428;13.302;2023-07-29T00:32:29;3.03;;;1.55;;
35795;SDS011;21916;52.428;13.302;2023-07-29T00:34:56;2.55;;;1.80;;
35795;SDS011;21916;52.428;13.302;2023-07-29T00:37:22;2.72;;;2.05;;
35795;SDS011;21916;52.428;13.302;2023-07-29T00:39:48;3.28;;;1.40;;
35795;SDS011;21916;52.428;13.302;2023-07-29T00:42:15;2.15;;;1.75;;
35795;SDS011;21916;52.428;13.302;2023-07-29T00:44:41;2.88;;;1.42;;
35795;SDS011;21916;52.428;13.302;2023-07-29T00:47:07;5.43;;;2.58;;
35795;SDS011;21916;52.428;13.302;2023-07-29T00:49:34;3.40;;;1.67;;
35795;SDS011;21916;52.428;13.302;2023-07-29T00:52:00;1.13;;;1.02;;
35795;SDS011;21916;52.428;13.302;2023-07-29T00:54:26;2.33;;;1.83;;
35795;SDS011;21916;52.428;13.302;2023-07-29T00:56:51;2.50;;;1.65;;
35795;SDS011;21916;52.428;13.302;2023-07-29T00:59:17;2.40;;;1.25;;
35795;SDS011;21916;52.428;13.302;2023-07-29T01:01:43;2.63;;;1.75;;
35795;SDS011;21916;52.428;13.302;2023-07-29T01:04:09;3.38;;;1.83;;
35795;SDS011;21916;52.428;13.302;2023-07-29T01:06:46;1.63;;;1.27;;
35795;SDS011;21916;52.428;13.302;2023-07-29T01:09:25;3.55;;;2.30;;
35795;SDS011;21916;52.428;13.302;2023-07-29T01:18:09;2.72;;;1.73;;
35795;SDS011;21916;52.428;13.302;2023-07-29T01:20:29;1.90;;;1.17;;
35795;SDS011;21916;52.428;13.302;2023-07-29T01:22:59;2.13;;;1.40;;
35795;SDS011;21916;52.428;13.302;2023-07-29T01:25:25;2.65;;;1.88;;
35795;SDS011;21916;52.428;13.302;2023-07-29T01:27:51;3.20;;;2.10;;
35795;SDS011;21916;52.428;13.302;2023-07-29T01:30:18;2.38;;;1.65;;
35795;SDS011;21916;52.428;13.302;2023-07-29T01:32:53;1.88;;;1.60;;
35795;SDS011;21916;52.428;13.302;2023-07-29T01:35:28;1.92;;;1.50;;
35795;SDS011;21916;52.428;13.302;2023-07-29T01:38:00;2.13;;;1.48;;
35795;SDS011;21916;52.428;13.302;2023-07-29T01:40:30;1.92;;;1.40;;
35795;SDS011;21916;52.428;13.302;2023-07-29T01:42:57;2.60;;;1.65;;
35795;SDS011;21916;52.428;13.302;2023-07-29T01:45:24;2.78;;;1.65;;
35795;SDS011;21916;52.428;13.302;2023-07-29T01:47:53;2.45;;;1.77;;
35795;SDS011;21916;52.428;13.302;2023-07-29T01:50:20;2.75;;;1.70;;
35795;SDS011;21916;52.428;13.302;2023-07-29T01:52:46;2.70;;;1.58;;
35795;SDS011;21916;52.428;13.302;2023-07-29T01:55:12;2.10;;;1.27;;
35795;SDS011;21916;52.428;13.302;2023-07-29T01:57:38;4.32;;;2.13;;
35795;SDS011;21916;52.428;13.302;2023-07-29T02:00:04;3.17;;;2.47;;
35795;SDS011;21916;52.428;13.302;2023-07-29T02:02:40;2.58;;;1.55;;
35795;SDS011;21916;52.428;13.302;2023-07-29T02:05:06;2.30;;;1.52;;
35795;SDS011;21916;52.428;13.302;2023-07-29T02:07:32;4.15;;;2.63;;
35795;SDS011;21916;52.428;13.302;2023-07-29T02:09:58;3.67;;;2.78;;
35795;SDS011;21916;52.428;13.302;2023-07-29T02:12:24;2.58;;;2.38;;
35795;SDS011;21916;52.428;13.302;2023-07-29T02:14:50;2.97;;;1.98;;
35795;SDS011;21916;52.428;13.302;2023-07-29T02:17:16;1.80;;;1.65;;
35795;SDS011;21916;52.428;13.302;2023-07-29T02:19:42;3.10;;;1.90;;
35795;SDS011;21916;52.428;13.302;2023-07-29T02:22:09;3.35;;;2.13;;
35795;SDS011;21916;52.428;13.302;2023-07-29T02:24:36;3.25;;;1.65;;
35795;SDS011;21916;52.428;13.302;2023-07-29T02:27:02;3.25;;;2.08;;
35795;SDS011;21916;52.428;13.302;2023-07-29T02:29:28;3.15;;;1.80;;
35795;SDS011;21916;52.428;13.302;2023-07-29T02:31:55;1.75;;;1.35;;
35795;SDS011;21916;52.428;13.302;2023-07-29T02:34:21;1.77;;;1.38;;
35795;SDS011;21916;52.428;13.302;2023-07-29T02:36:47;3.28;;;1.98;;
35795;SDS011;21916;52.428;13.302;2023-07-29T02:39:13;3.78;;;1.65;;
35795;SDS011;21916;52.428;13.302;2023-07-29T02:41:39;1.15;;;1.02;;
35795;SDS011;21916;52.428;13.302;2023-07-29T02:44:05;4.13;;;1.73;;
35795;SDS011;21916;52.428;13.302;2023-07-29T02:46:31;3.33;;;2.08;;
35795;SDS011;21916;52.428;13.302;2023-07-29T02:48:57;1.58;;;1.25;;
35795;SDS011;21916;52.428;13.302;2023-07-29T02:51:23;4.28;;;1.45;;
35795;SDS011;21916;52.428;13.302;2023-07-29T02:53:49;2.15;;;1.38;;
35795;SDS011;21916;52.428;13.302;2023-07-29T02:56:15;1.98;;;1.42;;
35795;SDS011;21916;52.428;13.302;2023-07-29T02:58:41;1.92;;;1.00;;
35795;SDS011;21916;52.428;13.302;2023-07-29T03:01:08;2.13;;;1.40;;
35795;SDS011;21916;52.428;13.302;2023-07-29T03:03:34;2.05;;;1.33;;
35795;SDS011;21916;52.428;13.302;2023-07-29T03:06:02;2.10;;;1.40;;
35795;SDS011;21916;52.428;13.302;2023-07-29T03:08:29;2.35;;;1.40;;
35795;SDS011;21916;52.428;13.302;2023-07-29T03:10:56;2.10;;;1.80;;
35795;SDS011;21916;52.428;13.302;2023-07-29T03:13:22;2.13;;;1.70;;
35795;SDS011;21916;52.428;13.302;2023-07-29T03:15:48;3.78;;;1.75;;
35795;SDS011;21916;52.428;13.302;2023-07-29T03:18:15;2.22;;;1.08;;
35795;SDS011;21916;52.428;13.302;2023-07-29T03:20:41;3.03;;;1.88;;
35795;SDS011;21916;52.428;13.302;2023-07-29T03:23:07;1.73;;;1.30;;
35795;SDS011;21916;52.428;13.302;2023-07-29T03:25:33;1.48;;;1.20;;
35795;SDS011;21916;52.428;13.302;2023-07-29T03:27:59;2.08;;;1.92;;
35795;SDS011;21916;52.428;13.302;2023-07-29T03:30:25;1.58;;;1.45;;
35795;SDS011;21916;52.428;13.302;2023-07-29T03:32:52;2.65;;;1.58;;
35795;SDS011;21916;52.428;13.302;2023-07-29T03:35:18;3.22;;;1.85;;
35795;SDS011;21916;52.428;13.302;2023-07-29T03:37:44;3.05;;;1.83;;
35795;SDS011;21916;52.428;13.302;2023-07-29T03:40:11;2.00;;;1.60;;
35795;SDS011;21916;52.428;13.302;2023-07-29T03:42:37;2.08;;;1.25;;
35795;SDS011;21916;52.428;13.302;2023-07-29T03:45:03;2.75;;;1.88;;
35795;SDS011;21916;52.428;13.302;2023-07-29T03:47:29;3.13;;;1.67;;
35795;SDS011;21916;52.428;13.302;2023-07-29T03:49:56;3.22;;;1.77;;
35795;SDS011;21916;52.428;13.302;2023-07-29T03:52:22;1.98;;;1.58;;
35795;SDS011;21916;52.428;13.302;2023-07-29T03:54:48;3.83;;;3.08;;
35795;SDS011;21916;52.428;13.302;2023-07-29T03:57:14;2.42;;;1.80;;
35795;SDS011;21916;52.428;13.302;2023-07-29T03:59:40;3.78;;;1.95;;
35795;SDS011;21916;52.428;13.302;2023-07-29T04:02:06;1.73;;;1.60;;
35795;SDS011;21916;52.428;13.302;2023-07-29T04:04:32;2.80;;;1.77;;
35795;SDS011;21916;52.428;13.302;2023-07-29T04:06:58;2.90;;;1.17;;
35795;SDS011;21916;52.428;13.302;2023-07-29T04:09:24;3.28;;;1.77;;
35795;SDS011;21916;52.428;13.302;2023-07-29T04:11:50;3.22;;;1.80;;
35795;SDS011;21916;52.428;13.302;2023-07-29T04:14:16;3.40;;;2.13;;
35795;SDS011;21916;52.428;13.302;2023-07-29T04:16:44;2.67;;;1.73;;
35795;SDS011;21916;52.428;13.302;2023-07-29T04:19:14;3.40;;;2.30;;
35795;SDS011;21916;52.428;13.302;2023-07-29T04:21:40;4.18;;;1.80;;
35795;SDS011;21916;52.428;13.302;2023-07-29T04:24:06;2.65;;;2.05;;
35795;SDS011;21916;52.428;13.302;2023-07-29T04:26:32;2.65;;;1.75;;
35795;SDS011;21916;52.428;13.302;2023-07-29T04:28:58;2.78;;;1.85;;
35795;SDS011;21916;52.428;13.302;2023-07-29T04:31:24;2.22;;;1.63;;
35795;SDS011;21916;52.428;13.302;2023-07-29T04:33:51;2.08;;;1.33;;
35795;SDS011;21916;52.428;13.302;2023-07-29T04:36:17;2.60;;;1.73;;
35795;SDS011;21916;52.428;13.302;2023-07-29T04:38:44;3.30;;;1.92;;
35795;SDS011;21916;52.428;13.302;2023-07-29T04:41:10;3.88;;;2.03;;
35795;SDS011;21916;52.428;13.302;2023-07-29T04:43:36;2.33;;;2.03;;
35795;SDS011;21916;52.428;13.302;2023-07-29T04:46:02;3.40;;;2.08;;
35795;SDS011;21916;52.428;13.302;2023-07-29T04:48:31;4.07;;;2.33;;
35795;SDS011;21916;52.428;13.302;2023-07-29T04:50:57;2.63;;;1.83;;
35795;SDS011;21916;52.428;13.302;2023-07-29T04:53:23;3.38;;;1.95;;
35795;SDS011;21916;52.428;13.302;2023-07-29T04:55:48;3.20;;;2.33;;
35795;SDS011;21916;52.428;13.302;2023-07-29T04:58:16;3.60;;;1.92;;
35795;SDS011;21916;52.428;13.302;2023-07-29T05:00:42;2.85;;;1.83;;
35795;SDS011;21916;52.428;13.302;2023-07-29T05:03:08;3.72;;;2.45;;
35795;SDS011;21916;52.428;13.302;2023-07-29T05:05:34;3.78;;;2.30;;
35795;SDS011;21916;52.428;13.302;2023-07-29T05:08:00;1.77;;;1.38;;
35795;SDS011;21916;52.428;13.302;2023-07-29T05:10:26;3.30;;;2.38;;
35795;SDS011;21916;52.428;13.302;2023-07-29T05:12:53;4.45;;;1.98;;
35795;SDS011;21916;52.428;13.302;2023-07-29T05:15:19;2.95;;;1.95;;
35795;SDS011;21916;52.428;13.302;2023-07-29T05:17:45;3.13;;;1.95;;
35795;SDS011;21916;52.428;13.302;2023-07-29T05:20:11;3.42;;;2.05;;
35795;SDS011;21916;52.428;13.302;2023-07-29T05:22:37;3.30;;;1.95;;
35795;SDS011;21916;52.428;13.302;2023-07-29T05:25:03;3.58;;;2.13;;
35795;SDS011;21916;52.428;13.302;2023-07-29T05:27:29;4.28;;;2.35;;
35795;SDS011;21916;52.428;13.302;2023-07-29T05:29:55;2.72;;;2.15;;
35795;SDS011;21916;52.428;13.302;2023-07-29T05:32:21;2.30;;;2.10;;
35795;SDS011;21916;52.428;13.302;2023-07-29T05:34:47;3.72;;;2.22;;
35795;SDS011;21916;52.428;13.302;2023-07-29T05:37:13;3.47;;;2.50;;
35795;SDS011;21916;52.428;13.302;2023-07-29T05:39:39;3.40;;;2.35;;
35795;SDS011;21916;52.428;13.302;2023-07-29T05:42:07;2.65;;;1.90;;
35795;SDS011;21916;52.428;13.302;2023-07-29T05:44:33;3.60;;;1.85;;
35795;SDS011;21916;52.428;13.302;2023-07-29T05:46:59;3.28;;;2.38;;
35795;SDS011;21916;52.428;13.302;2023-07-29T05:49:25;4.22;;;2.75;;
35795;SDS011;21916;52.428;13.302;2023-07-29T05:51:51;3.60;;;2.60;;
35795;SDS011;21916;52.428;13.302;2023-07-29T05:54:18;4.43;;;3.00;;
35795;SDS011;21916;52.428;13.302;2023-07-29T05:56:44;3.95;;;2.30;;
35795;SDS011;21916;52.428;13.302;2023-07-29T05:59:10;2.70;;;2.05;;
35795;SDS011;21916;52.428;13.302;2023-07-29T06:01:36;3.20;;;2.70;;
35795;SDS011;21916;52.428;13.302;2023-07-29T06:04:02;3.28;;;2.20;;
35795;SDS011;21916;52.428;13.302;2023-07-29T06:06:28;2.40;;;1.95;;
35795;SDS011;21916;52.428;13.302;2023-07-29T06:08:54;4.00;;;2.20;;
35795;SDS011;21916;52.428;13.302;2023-07-29T06:11:19;2.58;;;2.33;;
35795;SDS011;21916;52.428;13.302;2023-07-29T06:13:46;3.72;;;2.33;;
35795;SDS011;21916;52.428;13.302;2023-07-29T06:16:13;3.38;;;2.30;;
35795;SDS011;21916;52.428;13.302;2023-07-29T06:18:40;2.65;;;1.90;;
35795;SDS011;21916;52.428;13.302;2023-07-29T06:21:06;3.25;;;2.05;;
35795;SDS011;21916;52.428;13.302;2023-07-29T06:23:33;3.22;;;1.77;;
35795;SDS011;21916;52.428;13.302;2023-07-29T06:25:59;2.85;;;2.42;;
35795;SDS011;21916;52.428;13.302;2023-07-29T06:28:28;2.50;;;1.90;;
35795;SDS011;21916;52.428;13.302;2023-07-29T06:30:54;2.70;;;1.88;;
35795;SDS011;21916;52.428;13.302;2023-07-29T06:33:20;2.72;;;1.55;;
35795;SDS011;21916;52.428;13.302;2023-07-29T06:35:46;2.30;;;1.67;;
35795;SDS011;21916;52.428;13.302;2023-07-29T06:38:12;2.83;;;1.38;;
35795;SDS011;21916;52.428;13.302;2023-07-29T06:40:38;2.22;;;1.70;;
35795;SDS011;21916;52.428;13.302;2023-07-29T06:43:03;3.47;;;1.90;;
35795;SDS011;21916;52.428;13.302;2023-07-29T06:45:29;3.53;;;1.70;;
35795;SDS011;21916;52.428;13.302;2023-07-29T06:47:55;2.92;;;2.08;;
35795;SDS011;21916;52.428;13.302;2023-07-29T06:50:21;2.08;;;1.70;;
35795;SDS011;21916;52.428;13.302;2023-07-29T06:52:47;2.70;;;1.80;;
35795;SDS011;21916;52.428;13.302;2023-07-29T06:55:13;2.47;;;1.70;;
35795;SDS011;21916;52.428;13.302;2023-07-29T06:57:39;3.05;;;1.40;;
35795;SDS011;21916;52.428;13.302;2023-07-29T07:00:05;2.17;;;1.42;;
35795;SDS011;21916;52.428;13.302;2023-07-29T07:02:31;2.90;;;1.75;;
35795;SDS011;21916;52.428;13.302;2023-07-29T07:04:57;4.43;;;2.35;;
35795;SDS011;21916;52.428;13.302;2023-07-29T07:07:23;2.13;;;1.40;;
35795;SDS011;21916;52.428;13.302;2023-07-29T07:09:49;1.92;;;1.33;;
35795;SDS011;21916;52.428;13.302;2023-07-29T07:12:15;2.47;;;1.70;;
35795;SDS011;21916;52.428;13.302;2023-07-29T07:14:41;2.65;;;1.50;;
35795;SDS011;21916;52.428;13.302;2023-07-29T07:17:06;1.45;;;0.90;;
35795;SDS011;21916;52.428;13.302;2023-07-29T07:19:32;2.63;;;1.35;;
35795;SDS011;21916;52.428;13.302;2023-07-29T07:21:58;1.45;;;1.17;;
35795;SDS011;21916;52.428;13.302;2023-07-29T07:24:24;2.40;;;1.52;;
35795;SDS011;21916;52.428;13.302;2023-07-29T07:26:50;1.48;;;1.10;;
35795;SDS011;21916;52.428;13.302;2023-07-29T07:29:16;2.35;;;1.67;;
35795;SDS011;21916;52.428;13.302;2023-07-29T07:31:47;2.75;;;1.67;;
35795;SDS011;21916;52.428;13.302;2023-07-29T07:34:19;3.47;;;2.05;;
35795;SDS011;21916;52.428;13.302;2023-07-29T07:36:45;2.72;;;1.30;;
35795;SDS011;21916;52.428;13.302;2023-07-29T07:39:11;1.70;;;1.20;;
35795;SDS011;21916;52.428;13.302;2023-07-29T07:41:37;3.38;;;1.85;;
35795;SDS011;21916;52.428;13.302;2023-07-29T07:44:05;1.33;;;1.13;;
35795;SDS011;21916;52.428;13.302;2023-07-29T07:46:31;4.00;;;1.98;;
35795;SDS011;21916;52.428;13.302;2023-07-29T07:48:57;3.38;;;2.03;;
35795;SDS011;21916;52.428;13.302;2023-07-29T07:51:23;2.03;;;1.45;;
35795;SDS011;21916;52.428;13.302;2023-07-29T07:53:49;1.48;;;1.30;;
35795;SDS011;21916;52.428;13.302;2023-07-29T07:56:15;2.70;;;1.88;;
35795;SDS011;21916;52.428;13.302;2023-07-29T07:58:41;1.60;;;1.00;;
35795;SDS011;21916;52.428;13.302;2023-07-29T08:01:08;1.20;;;0.93;;
35795;SDS011;21916;52.428;13.302;2023-07-29T08:03:35;1.45;;;1.30;;
35795;SDS011;21916;52.428;13.302;2023-07-29T08:06:01;1.95;;;1.42;;
35795;SDS011;21916;52.428;13.302;2023-07-29T08:08:28;1.33;;;1.02;;
35795;SDS011;21916;52.428;13.302;2023-07-29T08:10:54;1.70;;;1.20;;
35795;SDS011;21916;52.428;13.302;2023-07-29T08:13:21;1.55;;;1.25;;
35795;SDS011;21916;52.428;13.302;2023-07-29T08:15:49;2.05;;;1.33;;
35795;SDS011;21916;52.428;13.302;2023-07-29T08:18:16;1.67;;;1.30;;
35795;SDS011;21916;52.428;13.302;2023-07-29T08:20:55;1.60;;;1.10;;
35795;SDS011;21916;52.428;13.302;2023-07-29T08:23:32;1.58;;;1.40;;
35795;SDS011;21916;52.428;13.302;2023-07-29T08:26:00;1.33;;;1.00;;
35795;SDS011;21916;52.428;13.302;2023-07-29T08:28:31;1.65;;;1.27;;
35795;SDS011;21916;52.428;13.302;2023-07-29T08:30:58;1.38;;;1.10;;
35795;SDS011;21916;52.428;13.302;2023-07-29T08:33:24;1.95;;;1.10;;
35795;SDS011;21916;52.428;13.302;2023-07-29T08:35:51;1.95;;;1.10;;
35795;SDS011;21916;52.428;13.302;2023-07-29T08:38:17;0.90;;;0.88;;
35795;SDS011;21916;52.428;13.302;2023-07-29T08:41:06;1.75;;;1.27;;
35795;SDS011;21916;52.428;13.302;2023-07-29T08:43:35;1.77;;;1.35;;
35795;SDS011;21916;52.428;13.302;2023-07-29T08:46:06;1.05;;;0.98;;
35795;SDS011;21916;52.428;13.302;2023-07-29T08:48:33;1.13;;;0.90;;
35795;SDS011;21916;52.428;13.302;2023-07-29T08:51:05;1.40;;;1.17;;
35795;SDS011;21916;52.428;13.302;2023-07-29T08:53:34;1.02;;;0.93;;
35795;SDS011;21916;52.428;13.302;2023-07-29T08:56:01;1.00;;;0.90;;
35795;SDS011;21916;52.428;13.302;2023-07-29T08:58:27;2.88;;;0.88;;
35795;SDS011;21916;52.428;13.302;2023-07-29T09:00:54;1.40;;;1.08;;
35795;SDS011;21916;52.428;13.302;2023-07-29T09:03:20;1.33;;;1.15;;
35795;SDS011;21916;52.428;13.302;2023-07-29T09:05:47;1.58;;;1.00;;
35795;SDS011;21916;52.428;13.302;2023-07-29T09:08:13;1.10;;;0.95;;
35795;SDS011;21916;52.428;13.302;2023-07-29T09:10:40;1.50;;;1.40;;
35795;SDS011;21916;52.428;13.302;2023-07-29T09:13:07;1.25;;;1.15;;
35795;SDS011;21916;52.428;13.302;2023-07-29T09:15:35;0.98;;;0.90;;
35795;SDS011;21916;52.428;13.302;2023-07-29T09:18:12;0.80;;;0.80;;
35795;SDS011;21916;52.428;13.302;2023-07-29T09:20:42;0.77;;;0.60;;
35795;SDS011;21916;52.428;13.302;2023-07-29T09:23:08;1.10;;;1.00;;
35795;SDS011;21916;52.428;13.302;2023-07-29T09:25:38;1.40;;;1.05;;
35795;SDS011;21916;52.428;13.302;2023-07-29T09:28:09;2.22;;;0.93;;
35795;SDS011;21916;52.428;13.302;2023-07-29T09:30:37;1.17;;;1.08;;
35795;SDS011;21916;52.428;13.302;2023-07-29T09:33:03;1.20;;;1.05;;
35795;SDS011;21916;52.428;13.302;2023-07-29T09:35:30;2.88;;;1.17;;
35795;SDS011;21916;52.428;13.302;2023-07-29T09:37:58;0.68;;;0.63;;
35795;SDS011;21916;52.428;13.302;2023-07-29T09:40:24;1.30;;;1.08;;
35795;SDS011;21916;52.428;13.302;2023-07-29T09:42:51;2.13;;;1.02;;
35795;SDS011;21916;52.428;13.302;2023-07-29T09:47:54;0.65;;;0.65;;
35795;SDS011;21916;52.428;13.302;2023-07-29T09:50:25;1.05;;;0.68;;
35795;SDS011;21916;52.428;13.302;2023-07-29T09:52:52;0.73;;;0.70;;
35795;SDS011;21916;52.428;13.302;2023-07-29T09:55:21;1.08;;;0.93;;
35795;SDS011;21916;52.428;13.302;2023-07-29T09:57:57;0.80;;;0.80;;
35795;SDS011;21916;52.428;13.302;2023-07-29T10:00:29;1.05;;;0.68;;
35795;SDS011;21916;52.428;13.302;2023-07-29T10:02:57;0.82;;;0.80;;
35795;SDS011;21916;52.428;13.302;2023-07-29T10:05:25;0.80;;;0.80;;
35795;SDS011;21916;52.428;13.302;2023-07-29T10:07:52;0.85;;;0.85;;
35795;SDS011;21916;52.428;13.302;2023-07-29T10:10:20;1.05;;;0.70;;
35795;SDS011;21916;52.428;13.302;2023-07-29T10:12:46;1.30;;;0.80;;
35795;SDS011;21916;52.428;13.302;2023-07-29T10:15:12;1.33;;;0.65;;
35795;SDS011;21916;52.428;13.302;2023-07-29T10:17:39;0.75;;;0.73;;
35795;SDS011;21916;52.428;13.302;2023-07-29T10:20:07;0.98;;;0.90;;
35795;SDS011;21916;52.428;13.302;2023-07-29T10:22:41;1.02;;;0.93;;
35795;SDS011;21916;52.428;13.302;2023-07-29T10:25:09;1.00;;;0.90;;
35795;SDS011;21916;52.428;13.302;2023-07-29T10:27:53;1.15;;;1.05;;
35795;SDS011;21916;52.428;13.302;2023-07-29T10:30:22;1.42;;;1.00;;
35795;SDS011;21916;52.428;13.302;2023-07-29T10:32:50;0.73;;;0.73;;
35795;SDS011;21916;52.428;13.302;2023-07-29T10:35:18;1.42;;;0.63;;
35795;SDS011;21916;52.428;13.302;2023-07-29T10:37:46;0.93;;;0.50;;
35795;SDS011;21916;52.428;13.302;2023-07-29T10:40:16;0.40;;;0.40;;
35795;SDS011;21916;52.428;13.302;2023-07-29T10:43:09;0.47;;;0.45;;
35795;SDS011;21916;52.428;13.302;2023-07-29T10:45:38;1.13;;;0.63;;
35795;SDS011;21916;52.428;13.302;2023-07-29T10:48:12;1.02;;;0.82;;
35795;SDS011;21916;52.428;13.302;2023-07-29T10:54:03;0.50;;;0.50;;
35795;SDS011;21916;52.428;13.302;2023-07-29T10:56:36;1.88;;;0.47;;
35795;SDS011;21916;52.428;13.302;2023-07-29T11:01:42;0.75;;;0.50;;
35795;SDS011;21916;52.428;13.302;2023-07-29T11:17:56;0.93;;;0.63;;
35795;SDS011;21916;52.428;13.302;2023-07-29T11:20:25;0.93;;;0.82;;
35795;SDS011;21916;52.428;13.302;2023-07-29T11:22:56;0.60;;;0.60;;
35795;SDS011;21916;52.428;13.302;2023-07-29T11:25:26;2.25;;;1.45;;
35795;SDS011;21916;52.428;13.302;2023-07-29T11:27:54;0.70;;;0.70;;
35795;SDS011;21916;52.428;13.302;2023-07-29T11:30:22;1.25;;;0.60;;
35795;SDS011;21916;52.428;13.302;2023-07-29T11:32:56;1.00;;;1.00;;
35795;SDS011;21916;52.428;13.302;2023-07-29T11:35:23;0.73;;;0.73;;
35795;SDS011;21916;52.428;13.302;2023-07-29T11:37:54;0.50;;;0.50;;
35795;SDS011;21916;52.428;13.302;2023-07-29T11:40:23;0.52;;;0.52;;
35795;SDS011;21916;52.428;13.302;2023-07-29T11:42:50;0.90;;;0.70;;
35795;SDS011;21916;52.428;13.302;2023-07-29T11:45:18;0.68;;;0.60;;
35795;SDS011;21916;52.428;13.302;2023-07-29T11:47:46;1.33;;;0.93;;
35795;SDS011;21916;52.428;13.302;2023-07-29T11:50:13;0.65;;;0.65;;
35795;SDS011;21916;52.428;13.302;2023-07-29T11:52:41;0.63;;;0.60;;
35795;SDS011;21916;52.428;13.302;2023-07-29T11:55:08;1.33;;;0.65;;
35795;SDS011;21916;52.428;13.302;2023-07-29T11:57:35;0.90;;;0.70;;
35795;SDS011;21916;52.428;13.302;2023-07-29T12:00:03;1.20;;;0.80;;
35795;SDS011;21916;52.428;13.302;2023-07-29T12:02:36;0.90;;;0.77;;
35795;SDS011;21916;52.428;13.302;2023-07-29T12:05:06;0.80;;;0.80;;
35795;SDS011;21916;52.428;13.302;2023-07-29T12:07:34;1.33;;;0.95;;
35795;SDS011;21916;52.428;13.302;2023-07-29T12:10:01;2.10;;;1.05;;
35795;SDS011;21916;52.428;13.302;2023-07-29T12:12:28;1.17;;;1.02;;
35795;SDS011;21916;52.428;13.302;2023-07-29T12:14:55;0.55;;;0.55;;
35795;SDS011;21916;52.428;13.302;2023-07-29T12:17:21;1.20;;;0.88;;
35795;SDS011;21916;52.428;13.302;2023-07-29T12:19:47;1.27;;;0.65;;
35795;SDS011;21916;52.428;13.302;2023-07-29T12:22:17;1.95;;;0.70;;
35795;SDS011;21916;52.428;13.302;2023-07-29T12:24:45;1.13;;;0.60;;
35795;SDS011;21916;52.428;13.302;2023-07-29T12:27:13;1.10;;;0.52;;
35795;SDS011;21916;52.428;13.302;2023-07-29T12:29:44;0.77;;;0.60;;
35795;SDS011;21916;52.428;13.302;2023-07-29T12:32:11;1.38;;;0.60;;
35795;SDS011;21916;52.428;13.302;2023-07-29T12:34:39;1.15;;;0.82;;
35795;SDS011;21916;52.428;13.302;2023-07-29T12:37:05;1.33;;;0.70;;
35795;SDS011;21916;52.428;13.302;2023-07-29T12:39:33;0.60;;;0.60;;
35795;SDS011;21916;52.428;13.302;2023-07-29T12:42:00;0.73;;;0.50;;
35795;SDS011;21916;52.428;13.302;2023-07-29T12:44:30;0.55;;;0.43;;
35795;SDS011;21916;52.428;13.302;2023-07-29T12:47:01;1.60;;;0.60;;
35795;SDS011;21916;52.428;13.302;2023-07-29T12:49:28;0.80;;;0.70;;
35795;SDS011;21916;52.428;13.302;2023-07-29T12:51:56;1.45;;;0.73;;
35795;SDS011;21916;52.428;13.302;2023-07-29T12:54:22;1.05;;;0.80;;
35795;SDS011;21916;52.428;13.302;2023-07-29T12:56:48;1.10;;;0.98;;
35795;SDS011;21916;52.428;13.302;2023-07-29T12:59:14;0.60;;;0.60;;
35795;SDS011;21916;52.428;13.302;2023-07-29T13:01:40;1.55;;;0.85;;
35795;SDS011;21916;52.428;13.302;2023-07-29T13:04:06;0.95;;;0.73;;
35795;SDS011;21916;52.428;13.302;2023-07-29T13:06:32;1.48;;;1.00;;
35795;SDS011;21916;52.428;13.302;2023-07-29T13:08:57;0.98;;;0.77;;
35795;SDS011;21916;52.428;13.302;2023-07-29T13:11:23;0.88;;;0.82;;
35795;SDS011;21916;52.428;13.302;2023-07-29T13:13:49;0.80;;;0.75;;
35795;SDS011;21916;52.428;13.302;2023-07-29T13:16:15;1.15;;;0.80;;
35795;SDS011;21916;52.428;13.302;2023-07-29T13:18:42;0.88;;;0.88;;
35795;SDS011;21916;52.428;13.302;2023-07-29T13:21:09;1.20;;;0.80;;
35795;SDS011;21916;52.428;13.302;2023-07-29T13:23:35;1.25;;;0.88;;
35795;SDS011;21916;52.428;13.302;2023-07-29T13:26:01;0.98;;;0.60;;
35795;SDS011;21916;52.428;13.302;2023-07-29T13:28:27;1.13;;;1.05;;
35795;SDS011;21916;52.428;13.302;2023-07-29T13:30:53;1.02;;;0.73;;
35795;SDS011;21916;52.428;13.302;2023-07-29T13:33:20;0.95;;;0.68;;
35795;SDS011;21916;52.428;13.302;2023-07-29T13:35:45;0.50;;;0.50;;
35795;SDS011;21916;52.428;13.302;2023-07-29T13:38:11;0.55;;;0.55;;
35795;SDS011;21916;52.428;13.302;2023-07-29T13:40:37;1.33;;;0.75;;
35795;SDS011;21916;52.428;13.302;2023-07-29T13:43:03;0.77;;;0.55;;
35795;SDS011;21916;52.428;13.302;2023-07-29T13:45:29;0.60;;;0.60;;
35795;SDS011;21916;52.428;13.302;2023-07-29T13:47:55;3.55;;;0.60;;
35795;SDS011;21916;52.428;13.302;2023-07-29T13:50:21;0.80;;;0.65;;
35795;SDS011;21916;52.428;13.302;2023-07-29T13:52:47;0.75;;;0.60;;
35795;SDS011;21916;52.428;13.302;2023-07-29T13:55:14;0.45;;;0.40;;
35795;SDS011;21916;52.428;13.302;2023-07-29T13:57:39;0.50;;;0.50;;
35795;SDS011;21916;52.428;13.302;2023-07-29T14:00:06;1.48;;;0.70;;
35795;SDS011;21916;52.428;13.302;2023-07-29T14:05:06;1.00;;;0.65;;
35795;SDS011;21916;52.428;13.302;2023-07-29T14:07:32;0.73;;;0.52;;
35795;SDS011;21916;52.428;13.302;2023-07-29T14:09:58;0.50;;;0.50;;
35795;SDS011;21916;52.428;13.302;2023-07-29T14:12:24;0.85;;;0.55;;
35795;SDS011;21916;52.428;13.302;2023-07-29T14:14:50;0.63;;;0.63;;
35795;SDS011;21916;52.428;13.302;2023-07-29T14:17:16;0.68;;;0.60;;
35795;SDS011;21916;52.428;13.302;2023-07-29T14:19:42;1.08;;;0.68;;
35795;SDS011;21916;52.428;13.302;2023-07-29T14:22:08;2.08;;;0.60;;
35795;SDS011;21916;52.428;13.302;2023-07-29T14:24:34;3.40;;;1.02;;
35795;SDS011;21916;52.428;13.302;2023-07-29T14:27:00;0.60;;;0.50;;
35795;SDS011;21916;52.428;13.302;2023-07-29T14:29:27;1.05;;;0.50;;
35795;SDS011;21916;52.428;13.302;2023-07-29T14:31:54;0.75;;;0.50;;
35795;SDS011;21916;52.428;13.302;2023-07-29T14:34:21;0.82;;;0.82;;
35795;SDS011;21916;52.428;13.302;2023-07-29T14:36:47;0.50;;;0.50;;
35795;SDS011;21916;52.428;13.302;2023-07-29T14:39:13;0.85;;;0.50;;
35795;SDS011;21916;52.428;13.302;2023-07-29T14:41:38;0.75;;;0.45;;
35795;SDS011;21916;52.428;13.302;2023-07-29T14:44:04;0.77;;;0.70;;
35795;SDS011;21916;52.428;13.302;2023-07-29T14:46:30;0.70;;;0.70;;
35795;SDS011;21916;52.428;13.302;2023-07-29T14:48:56;0.77;;;0.55;;
35795;SDS011;21916;52.428;13.302;2023-07-29T14:51:22;1.27;;;0.65;;
35795;SDS011;21916;52.428;13.302;2023-07-29T14:53:48;0.93;;;0.75;;
35795;SDS011;21916;52.428;13.302;2023-07-29T14:56:14;1.05;;;0.82;;
35795;SDS011;21916;52.428;13.302;2023-07-29T14:58:43;1.05;;;0.50;;
35795;SDS011;21916;52.428;13.302;2023-07-29T15:01:10;0.50;;;0.50;;
35795;SDS011;21916;52.428;13.302;2023-07-29T15:03:36;0.95;;;0.77;;